sensor_id;sensor_type;location;lat;lon;timestamp;P1;durP1;ratioP1;P2;durP2;ratioP2
10126;SDS011;13080;42.608;23.362;2023-04-15T00:01:39;3.53;;;1.73;;
10126;SDS011;13080;42.608;23.362;2023-04-15T00:04:07;3.33;;;1.80;;
10126;SDS011;13080;42.608;23.362;2023-04-15T00:06:35;4.88;;;1.63;;
10126;SDS011;13080;42.608;23.362;2023-04-15T00:09:03;4.25;;;1.63;;
10126;SDS011;13080;42.608;23.362;2023-04-15T00:11:30;2.75;;;1.58;;
10126;SDS011;13080;42.608;23.362;2023-04-15T00:13:57;4.07;;;1.90;;
10126;SDS011;13080;42.608;23.362;2023-04-15T00:16:24;2.38;;;1.50;;
10126;SDS011;13080;42.608;23.362;2023-04-15T00:18:51;3.30;;;1.75;;
10126;SDS011;13080;42.608;23.362;2023-04-15T00:21:19;3.22;;;1.55;;
10126;SDS011;13080;42.608;23.362;2023-04-15T00:23:45;6.47;;;1.92;;
10126;SDS011;13080;42.608;23.362;2023-04-15T00:26:16;2.15;;;1.60;;
10126;SDS011;13080;42.608;23.362;2023-04-15T00:28:43;3.85;;;2.00;;
10126;SDS011;13080;42.608;23.362;2023-04-15T00:31:10;10.30;;;2.53;;
10126;SDS011;13080;42.608;23.362;2023-04-15T00:33:37;7.03;;;2.53;;
10126;SDS011;13080;42.608;23.362;2023-04-15T00:36:05;7.82;;;2.95;;
10126;SDS011;13080;42.608;23.362;2023-04-15T00:38:34;8.10;;;2.22;;
10126;SDS011;13080;42.608;23.362;2023-04-15T00:41:01;8.25;;;2.15;;
10126;SDS011;13080;42.608;23.362;2023-04-15T00:43:28;6.35;;;2.30;;
10126;SDS011;13080;42.608;23.362;2023-04-15T00:45:55;4.85;;;2.20;;
10126;SDS011;13080;42.608;23.362;2023-04-15T00:48:24;5.53;;;1.90;;
10126;SDS011;13080;42.608;23.362;2023-04-15T00:50:52;4.50;;;2.03;;
10126;SDS011;13080;42.608;23.362;2023-04-15T00:53:19;6.20;;;1.98;;
10126;SDS011;13080;42.608;23.362;2023-04-15T00:55:47;8.80;;;2.20;;
10126;SDS011;13080;42.608;23.362;2023-04-15T00:58:14;4.47;;;2.22;;
10126;SDS011;13080;42.608;23.362;2023-04-15T01:00:42;4.57;;;1.75;;
10126;SDS011;13080;42.608;23.362;2023-04-15T01:03:08;4.25;;;1.65;;
10126;SDS011;13080;42.608;23.362;2023-04-15T01:05:35;6.03;;;1.83;;
10126;SDS011;13080;42.608;23.362;2023-04-15T01:08:03;3.17;;;2.03;;
10126;SDS011;13080;42.608;23.362;2023-04-15T01:10:30;7.55;;;2.72;;
10126;SDS011;13080;42.608;23.362;2023-04-15T01:12:59;4.05;;;2.10;;
10126;SDS011;13080;42.608;23.362;2023-04-15T01:15:26;3.88;;;2.10;;
10126;SDS011;13080;42.608;23.362;2023-04-15T01:17:53;2.60;;;1.80;;
10126;SDS011;13080;42.608;23.362;2023-04-15T01:20:20;4.85;;;1.88;;
10126;SDS011;13080;42.608;23.362;2023-04-15T01:22:47;2.40;;;1.80;;
10126;SDS011;13080;42.608;23.362;2023-04-15T01:25:16;2.85;;;1.50;;
10126;SDS011;13080;42.608;23.362;2023-04-15T01:27:46;4.85;;;2.03;;
10126;SDS011;13080;42.608;23.362;2023-04-15T01:30:12;3.00;;;1.67;;
10126;SDS011;13080;42.608;23.362;2023-04-15T01:32:39;3.33;;;1.70;;
10126;SDS011;13080;42.608;23.362;2023-04-15T01:35:06;5.95;;;1.70;;
10126;SDS011;13080;42.608;23.362;2023-04-15T01:37:34;1.92;;;1.42;;
10126;SDS011;13080;42.608;23.362;2023-04-15T01:40:01;4.70;;;1.52;;
10126;SDS011;13080;42.608;23.362;2023-04-15T01:42:28;4.00;;;1.45;;
10126;SDS011;13080;42.608;23.362;2023-04-15T01:44:56;1.42;;;1.10;;
10126;SDS011;13080;42.608;23.362;2023-04-15T01:47:23;2.90;;;1.25;;
10126;SDS011;13080;42.608;23.362;2023-04-15T01:49:50;3.20;;;1.50;;
10126;SDS011;13080;42.608;23.362;2023-04-15T01:52:16;3.97;;;1.30;;
10126;SDS011;13080;42.608;23.362;2023-04-15T01:54:43;2.80;;;1.73;;
10126;SDS011;13080;42.608;23.362;2023-04-15T01:57:10;5.43;;;1.67;;
10126;SDS011;13080;42.608;23.362;2023-04-15T01:59:37;5.63;;;1.60;;
10126;SDS011;13080;42.608;23.362;2023-04-15T02:02:05;4.13;;;2.08;;
10126;SDS011;13080;42.608;23.362;2023-04-15T02:04:32;3.03;;;1.77;;
10126;SDS011;13080;42.608;23.362;2023-04-15T02:06:58;6.97;;;2.13;;
10126;SDS011;13080;42.608;23.362;2023-04-15T02:09:25;4.95;;;1.90;;
10126;SDS011;13080;42.608;23.362;2023-04-15T02:11:52;4.45;;;1.85;;
10126;SDS011;13080;42.608;23.362;2023-04-15T02:14:19;2.78;;;1.55;;
10126;SDS011;13080;42.608;23.362;2023-04-15T02:16:46;2.67;;;1.30;;
10126;SDS011;13080;42.608;23.362;2023-04-15T02:19:14;2.47;;;1.33;;
10126;SDS011;13080;42.608;23.362;2023-04-15T02:21:40;2.90;;;1.50;;
10126;SDS011;13080;42.608;23.362;2023-04-15T02:24:07;2.15;;;1.58;;
10126;SDS011;13080;42.608;23.362;2023-04-15T02:26:36;4.70;;;1.70;;
10126;SDS011;13080;42.608;23.362;2023-04-15T02:29:02;3.03;;;1.40;;
10126;SDS011;13080;42.608;23.362;2023-04-15T02:31:29;2.40;;;2.20;;
10126;SDS011;13080;42.608;23.362;2023-04-15T02:34:00;6.85;;;5.90;;
10126;SDS011;13080;42.608;23.362;2023-04-15T02:36:29;7.18;;;6.50;;
10126;SDS011;13080;42.608;23.362;2023-04-15T02:38:57;2.30;;;2.08;;
10126;SDS011;13080;42.608;23.362;2023-04-15T02:41:23;1.92;;;1.05;;
10126;SDS011;13080;42.608;23.362;2023-04-15T02:43:52;5.40;;;1.50;;
10126;SDS011;13080;42.608;23.362;2023-04-15T02:46:19;2.08;;;1.20;;
10126;SDS011;13080;42.608;23.362;2023-04-15T02:48:47;1.42;;;1.20;;
10126;SDS011;13080;42.608;23.362;2023-04-15T02:51:14;2.63;;;1.30;;
10126;SDS011;13080;42.608;23.362;2023-04-15T02:53:42;1.80;;;0.90;;
10126;SDS011;13080;42.608;23.362;2023-04-15T02:56:09;3.15;;;1.25;;
10126;SDS011;13080;42.608;23.362;2023-04-15T02:58:36;1.70;;;1.08;;
10126;SDS011;13080;42.608;23.362;2023-04-15T03:01:03;2.20;;;1.13;;
10126;SDS011;13080;42.608;23.362;2023-04-15T03:03:30;1.98;;;0.93;;
10126;SDS011;13080;42.608;23.362;2023-04-15T03:05:57;2.05;;;0.80;;
10126;SDS011;13080;42.608;23.362;2023-04-15T03:08:23;2.90;;;0.93;;
10126;SDS011;13080;42.608;23.362;2023-04-15T03:10:52;3.80;;;1.40;;
10126;SDS011;13080;42.608;23.362;2023-04-15T03:13:18;5.38;;;1.80;;
10126;SDS011;13080;42.608;23.362;2023-04-15T03:15:45;2.97;;;1.33;;
10126;SDS011;13080;42.608;23.362;2023-04-15T03:18:12;4.30;;;1.90;;
10126;SDS011;13080;42.608;23.362;2023-04-15T03:20:39;2.83;;;1.30;;
10126;SDS011;13080;42.608;23.362;2023-04-15T03:23:06;4.65;;;2.50;;
10126;SDS011;13080;42.608;23.362;2023-04-15T03:25:33;3.20;;;2.00;;
10126;SDS011;13080;42.608;23.362;2023-04-15T03:28:02;4.68;;;2.38;;
10126;SDS011;13080;42.608;23.362;2023-04-15T03:30:29;5.53;;;1.95;;
10126;SDS011;13080;42.608;23.362;2023-04-15T03:32:56;3.72;;;2.30;;
10126;SDS011;13080;42.608;23.362;2023-04-15T03:35:23;9.65;;;3.30;;
10126;SDS011;13080;42.608;23.362;2023-04-15T03:37:50;5.85;;;2.97;;
10126;SDS011;13080;42.608;23.362;2023-04-15T03:40:16;5.45;;;4.18;;
10126;SDS011;13080;42.608;23.362;2023-04-15T03:42:43;8.98;;;3.30;;
10126;SDS011;13080;42.608;23.362;2023-04-15T03:45:11;6.10;;;3.63;;
10126;SDS011;13080;42.608;23.362;2023-04-15T03:47:38;4.90;;;2.42;;
10126;SDS011;13080;42.608;23.362;2023-04-15T03:50:05;4.60;;;2.38;;
10126;SDS011;13080;42.608;23.362;2023-04-15T03:52:33;4.50;;;2.65;;
10126;SDS011;13080;42.608;23.362;2023-04-15T03:54:59;4.68;;;2.67;;
10126;SDS011;13080;42.608;23.362;2023-04-15T03:57:26;4.75;;;2.80;;
10126;SDS011;13080;42.608;23.362;2023-04-15T03:59:53;6.18;;;2.90;;
10126;SDS011;13080;42.608;23.362;2023-04-15T04:02:21;5.25;;;3.45;;
10126;SDS011;13080;42.608;23.362;2023-04-15T04:04:48;5.13;;;2.97;;
10126;SDS011;13080;42.608;23.362;2023-04-15T04:07:15;5.57;;;3.17;;
10126;SDS011;13080;42.608;23.362;2023-04-15T04:09:42;4.47;;;2.58;;
10126;SDS011;13080;42.608;23.362;2023-04-15T04:12:09;5.28;;;2.60;;
10126;SDS011;13080;42.608;23.362;2023-04-15T04:14:36;3.90;;;2.75;;
10126;SDS011;13080;42.608;23.362;2023-04-15T04:17:03;6.55;;;2.30;;
10126;SDS011;13080;42.608;23.362;2023-04-15T04:19:31;4.18;;;1.90;;
10126;SDS011;13080;42.608;23.362;2023-04-15T04:21:58;3.55;;;1.73;;
10126;SDS011;13080;42.608;23.362;2023-04-15T04:24:25;3.60;;;2.03;;
10126;SDS011;13080;42.608;23.362;2023-04-15T04:26:54;2.30;;;1.77;;
10126;SDS011;13080;42.608;23.362;2023-04-15T04:29:21;4.97;;;2.13;;
10126;SDS011;13080;42.608;23.362;2023-04-15T04:31:48;4.53;;;2.20;;
10126;SDS011;13080;42.608;23.362;2023-04-15T04:34:15;4.57;;;2.65;;
10126;SDS011;13080;42.608;23.362;2023-04-15T04:36:43;4.95;;;2.60;;
10126;SDS011;13080;42.608;23.362;2023-04-15T04:39:10;3.63;;;2.28;;
10126;SDS011;13080;42.608;23.362;2023-04-15T04:41:36;4.00;;;1.90;;
10126;SDS011;13080;42.608;23.362;2023-04-15T04:44:03;4.45;;;1.80;;
10126;SDS011;13080;42.608;23.362;2023-04-15T04:46:30;3.70;;;1.90;;
10126;SDS011;13080;42.608;23.362;2023-04-15T04:48:57;3.35;;;2.17;;
10126;SDS011;13080;42.608;23.362;2023-04-15T04:51:23;4.18;;;2.10;;
10126;SDS011;13080;42.608;23.362;2023-04-15T04:53:51;3.55;;;1.73;;
10126;SDS011;13080;42.608;23.362;2023-04-15T04:56:19;4.75;;;2.03;;
10126;SDS011;13080;42.608;23.362;2023-04-15T04:58:46;8.13;;;3.72;;
10126;SDS011;13080;42.608;23.362;2023-04-15T05:01:12;5.97;;;3.25;;
10126;SDS011;13080;42.608;23.362;2023-04-15T05:03:39;6.47;;;3.72;;
10126;SDS011;13080;42.608;23.362;2023-04-15T05:06:06;6.18;;;3.55;;
10126;SDS011;13080;42.608;23.362;2023-04-15T05:08:33;8.77;;;4.13;;
10126;SDS011;13080;42.608;23.362;2023-04-15T05:11:01;10.82;;;4.40;;
10126;SDS011;13080;42.608;23.362;2023-04-15T05:13:28;10.38;;;4.53;;
10126;SDS011;13080;42.608;23.362;2023-04-15T05:15:55;8.65;;;5.25;;
10126;SDS011;13080;42.608;23.362;2023-04-15T05:18:22;8.73;;;3.63;;
10126;SDS011;13080;42.608;23.362;2023-04-15T05:20:49;7.47;;;4.57;;
10126;SDS011;13080;42.608;23.362;2023-04-15T05:23:15;11.00;;;4.78;;
10126;SDS011;13080;42.608;23.362;2023-04-15T05:25:42;7.88;;;3.80;;
10126;SDS011;13080;42.608;23.362;2023-04-15T05:28:11;6.43;;;3.97;;
10126;SDS011;13080;42.608;23.362;2023-04-15T05:30:37;8.30;;;4.50;;
10126;SDS011;13080;42.608;23.362;2023-04-15T05:33:05;8.43;;;4.15;;
10126;SDS011;13080;42.608;23.362;2023-04-15T05:35:31;6.50;;;3.35;;
10126;SDS011;13080;42.608;23.362;2023-04-15T05:37:58;8.07;;;3.40;;
10126;SDS011;13080;42.608;23.362;2023-04-15T05:40:25;4.80;;;2.83;;
10126;SDS011;13080;42.608;23.362;2023-04-15T05:42:52;6.07;;;3.50;;
10126;SDS011;13080;42.608;23.362;2023-04-15T05:45:20;7.18;;;4.18;;
10126;SDS011;13080;42.608;23.362;2023-04-15T05:47:47;9.75;;;3.88;;
10126;SDS011;13080;42.608;23.362;2023-04-15T05:50:14;7.97;;;3.05;;
10126;SDS011;13080;42.608;23.362;2023-04-15T05:52:41;5.30;;;2.80;;
10126;SDS011;13080;42.608;23.362;2023-04-15T05:55:08;7.03;;;2.63;;
10126;SDS011;13080;42.608;23.362;2023-04-15T05:57:35;5.22;;;2.80;;
10126;SDS011;13080;42.608;23.362;2023-04-15T06:00:02;5.07;;;2.80;;
10126;SDS011;13080;42.608;23.362;2023-04-15T06:02:31;5.82;;;2.45;;
10126;SDS011;13080;42.608;23.362;2023-04-15T06:04:58;9.38;;;3.63;;
10126;SDS011;13080;42.608;23.362;2023-04-15T06:07:25;6.05;;;3.20;;
10126;SDS011;13080;42.608;23.362;2023-04-15T06:09:51;5.65;;;3.42;;
10126;SDS011;13080;42.608;23.362;2023-04-15T06:12:18;7.10;;;2.70;;
10126;SDS011;13080;42.608;23.362;2023-04-15T06:14:45;5.25;;;2.88;;
10126;SDS011;13080;42.608;23.362;2023-04-15T06:17:13;6.75;;;2.50;;
10126;SDS011;13080;42.608;23.362;2023-04-15T06:19:43;5.22;;;3.15;;
10126;SDS011;13080;42.608;23.362;2023-04-15T06:22:10;5.55;;;3.10;;
10126;SDS011;13080;42.608;23.362;2023-04-15T06:24:37;5.38;;;2.65;;
10126;SDS011;13080;42.608;23.362;2023-04-15T06:27:03;2.92;;;1.70;;
10126;SDS011;13080;42.608;23.362;2023-04-15T06:29:30;5.22;;;2.13;;
10126;SDS011;13080;42.608;23.362;2023-04-15T06:31:57;6.35;;;2.15;;
10126;SDS011;13080;42.608;23.362;2023-04-15T06:34:23;4.57;;;2.00;;
10126;SDS011;13080;42.608;23.362;2023-04-15T06:36:52;6.53;;;1.80;;
10126;SDS011;13080;42.608;23.362;2023-04-15T06:39:19;5.28;;;2.05;;
10126;SDS011;13080;42.608;23.362;2023-04-15T06:41:45;5.40;;;2.40;;
10126;SDS011;13080;42.608;23.362;2023-04-15T06:44:12;5.68;;;1.85;;
10126;SDS011;13080;42.608;23.362;2023-04-15T06:46:40;4.57;;;2.00;;
10126;SDS011;13080;42.608;23.362;2023-04-15T06:49:06;3.92;;;1.92;;
10126;SDS011;13080;42.608;23.362;2023-04-15T06:51:33;4.38;;;2.15;;
10126;SDS011;13080;42.608;23.362;2023-04-15T06:54:01;6.53;;;2.25;;
10126;SDS011;13080;42.608;23.362;2023-04-15T06:56:30;4.80;;;1.90;;
10126;SDS011;13080;42.608;23.362;2023-04-15T06:58:56;4.90;;;2.13;;
10126;SDS011;13080;42.608;23.362;2023-04-15T07:01:23;4.72;;;2.03;;
10126;SDS011;13080;42.608;23.362;2023-04-15T07:03:50;6.07;;;2.42;;
10126;SDS011;13080;42.608;23.362;2023-04-15T07:06:17;3.58;;;1.90;;
10126;SDS011;13080;42.608;23.362;2023-04-15T07:08:44;4.68;;;2.05;;
10126;SDS011;13080;42.608;23.362;2023-04-15T07:11:12;4.60;;;2.22;;
10126;SDS011;13080;42.608;23.362;2023-04-15T07:13:39;8.45;;;2.20;;
10126;SDS011;13080;42.608;23.362;2023-04-15T07:16:05;2.75;;;1.70;;
10126;SDS011;13080;42.608;23.362;2023-04-15T07:18:33;6.32;;;2.63;;
10126;SDS011;13080;42.608;23.362;2023-04-15T07:20:59;5.93;;;2.80;;
10126;SDS011;13080;42.608;23.362;2023-04-15T07:23:26;8.98;;;2.13;;
10126;SDS011;13080;42.608;23.362;2023-04-15T07:25:53;6.78;;;2.50;;
10126;SDS011;13080;42.608;23.362;2023-04-15T07:28:22;4.80;;;2.03;;
10126;SDS011;13080;42.608;23.362;2023-04-15T07:30:49;7.53;;;2.30;;
10126;SDS011;13080;42.608;23.362;2023-04-15T07:33:16;4.78;;;1.77;;
10126;SDS011;13080;42.608;23.362;2023-04-15T07:35:42;4.72;;;1.75;;
10126;SDS011;13080;42.608;23.362;2023-04-15T07:38:10;7.55;;;3.28;;
10126;SDS011;13080;42.608;23.362;2023-04-15T07:40:37;5.32;;;2.20;;
10126;SDS011;13080;42.608;23.362;2023-04-15T07:43:04;5.22;;;2.25;;
10126;SDS011;13080;42.608;23.362;2023-04-15T07:45:32;5.25;;;2.38;;
10126;SDS011;13080;42.608;23.362;2023-04-15T07:47:59;4.68;;;2.30;;
10126;SDS011;13080;42.608;23.362;2023-04-15T07:50:26;3.97;;;2.30;;
10126;SDS011;13080;42.608;23.362;2023-04-15T07:52:54;3.65;;;2.30;;
10126;SDS011;13080;42.608;23.362;2023-04-15T07:55:21;5.10;;;2.05;;
10126;SDS011;13080;42.608;23.362;2023-04-15T07:57:48;2.80;;;1.60;;
10126;SDS011;13080;42.608;23.362;2023-04-15T08:00:15;7.05;;;2.08;;
10126;SDS011;13080;42.608;23.362;2023-04-15T08:02:44;3.67;;;1.90;;
10126;SDS011;13080;42.608;23.362;2023-04-15T08:05:12;5.82;;;1.70;;
10126;SDS011;13080;42.608;23.362;2023-04-15T08:07:39;5.03;;;2.20;;
10126;SDS011;13080;42.608;23.362;2023-04-15T08:10:07;6.03;;;2.08;;
10126;SDS011;13080;42.608;23.362;2023-04-15T08:12:34;5.57;;;2.10;;
10126;SDS011;13080;42.608;23.362;2023-04-15T08:15:01;6.57;;;2.58;;
10126;SDS011;13080;42.608;23.362;2023-04-15T08:17:27;3.25;;;1.98;;
10126;SDS011;13080;42.608;23.362;2023-04-15T08:19:55;4.70;;;2.22;;
10126;SDS011;13080;42.608;23.362;2023-04-15T08:22:22;3.75;;;1.90;;
10126;SDS011;13080;42.608;23.362;2023-04-15T08:24:49;4.05;;;2.25;;
10126;SDS011;13080;42.608;23.362;2023-04-15T08:27:16;3.92;;;2.03;;
10126;SDS011;13080;42.608;23.362;2023-04-15T08:29:43;5.15;;;1.70;;
10126;SDS011;13080;42.608;23.362;2023-04-15T08:32:10;4.93;;;1.70;;
10126;SDS011;13080;42.608;23.362;2023-04-15T08:34:37;3.70;;;1.60;;
10126;SDS011;13080;42.608;23.362;2023-04-15T08:37:05;2.72;;;1.42;;
10126;SDS011;13080;42.608;23.362;2023-04-15T08:39:32;5.05;;;1.70;;
10126;SDS011;13080;42.608;23.362;2023-04-15T08:41:59;1.55;;;1.10;;
10126;SDS011;13080;42.608;23.362;2023-04-15T08:44:28;2.92;;;1.77;;
10126;SDS011;13080;42.608;23.362;2023-04-15T08:46:55;3.15;;;1.20;;
10126;SDS011;13080;42.608;23.362;2023-04-15T08:49:26;4.45;;;1.73;;
10126;SDS011;13080;42.608;23.362;2023-04-15T08:51:54;4.50;;;1.33;;
10126;SDS011;13080;42.608;23.362;2023-04-15T08:54:23;3.90;;;1.52;;
10126;SDS011;13080;42.608;23.362;2023-04-15T08:56:51;6.70;;;1.50;;
10126;SDS011;13080;42.608;23.362;2023-04-15T08:59:18;1.63;;;1.10;;
10126;SDS011;13080;42.608;23.362;2023-04-15T09:01:47;1.63;;;1.17;;
10126;SDS011;13080;42.608;23.362;2023-04-15T09:04:17;3.67;;;1.48;;
10126;SDS011;13080;42.608;23.362;2023-04-15T09:06:44;2.58;;;1.25;;
10126;SDS011;13080;42.608;23.362;2023-04-15T09:09:12;4.35;;;1.23;;
10126;SDS011;13080;42.608;23.362;2023-04-15T09:11:40;2.75;;;1.35;;
10126;SDS011;13080;42.608;23.362;2023-04-15T09:14:07;3.47;;;1.15;;
10126;SDS011;13080;42.608;23.362;2023-04-15T09:19:22;3.13;;;1.40;;
10126;SDS011;13080;42.608;23.362;2023-04-15T09:21:50;3.45;;;1.20;;
10126;SDS011;13080;42.608;23.362;2023-04-15T09:24:17;4.25;;;1.25;;
10126;SDS011;13080;42.608;23.362;2023-04-15T09:26:46;3.47;;;1.75;;
10126;SDS011;13080;42.608;23.362;2023-04-15T09:29:12;3.08;;;1.15;;
10126;SDS011;13080;42.608;23.362;2023-04-15T09:31:39;2.47;;;1.08;;
10126;SDS011;13080;42.608;23.362;2023-04-15T09:34:06;3.28;;;1.17;;
10126;SDS011;13080;42.608;23.362;2023-04-15T09:36:52;2.53;;;0.90;;
10126;SDS011;13080;42.608;23.362;2023-04-15T09:39:20;1.75;;;1.42;;
10126;SDS011;13080;42.608;23.362;2023-04-15T09:41:48;2.83;;;1.15;;
10126;SDS011;13080;42.608;23.362;2023-04-15T09:44:29;3.67;;;1.00;;
10126;SDS011;13080;42.608;23.362;2023-04-15T09:46:56;4.20;;;1.40;;
10126;SDS011;13080;42.608;23.362;2023-04-15T09:49:23;2.22;;;0.95;;
10126;SDS011;13080;42.608;23.362;2023-04-15T09:51:50;3.47;;;1.17;;
10126;SDS011;13080;42.608;23.362;2023-04-15T09:54:18;2.38;;;0.82;;
10126;SDS011;13080;42.608;23.362;2023-04-15T09:56:45;1.27;;;0.63;;
10126;SDS011;13080;42.608;23.362;2023-04-15T09:59:14;1.83;;;1.15;;
10126;SDS011;13080;42.608;23.362;2023-04-15T10:01:40;2.75;;;1.65;;
10126;SDS011;13080;42.608;23.362;2023-04-15T10:04:08;2.25;;;1.08;;
10126;SDS011;13080;42.608;23.362;2023-04-15T10:06:36;3.05;;;0.70;;
10126;SDS011;13080;42.608;23.362;2023-04-15T10:09:03;3.60;;;2.13;;
10126;SDS011;13080;42.608;23.362;2023-04-15T10:11:31;2.30;;;1.30;;
10126;SDS011;13080;42.608;23.362;2023-04-15T10:14:00;1.67;;;0.98;;
10126;SDS011;13080;42.608;23.362;2023-04-15T10:16:29;4.15;;;1.05;;
10126;SDS011;13080;42.608;23.362;2023-04-15T10:18:59;3.53;;;1.20;;
10126;SDS011;13080;42.608;23.362;2023-04-15T10:21:27;3.92;;;1.00;;
10126;SDS011;13080;42.608;23.362;2023-04-15T10:23:56;1.88;;;1.05;;
10126;SDS011;13080;42.608;23.362;2023-04-15T10:26:23;3.95;;;1.60;;
10126;SDS011;13080;42.608;23.362;2023-04-15T10:28:50;3.58;;;1.20;;
10126;SDS011;13080;42.608;23.362;2023-04-15T10:31:18;6.25;;;1.00;;
10126;SDS011;13080;42.608;23.362;2023-04-15T10:33:47;3.40;;;0.95;;
10126;SDS011;13080;42.608;23.362;2023-04-15T10:36:14;3.90;;;1.17;;
10126;SDS011;13080;42.608;23.362;2023-04-15T10:38:42;2.13;;;1.20;;
10126;SDS011;13080;42.608;23.362;2023-04-15T10:41:13;2.13;;;1.20;;
10126;SDS011;13080;42.608;23.362;2023-04-15T10:43:45;2.20;;;0.88;;
10126;SDS011;13080;42.608;23.362;2023-04-15T10:46:16;3.20;;;0.80;;
10126;SDS011;13080;42.608;23.362;2023-04-15T10:48:50;3.35;;;0.80;;
10126;SDS011;13080;42.608;23.362;2023-04-15T10:51:27;2.13;;;0.80;;
10126;SDS011;13080;42.608;23.362;2023-04-15T10:56:23;1.33;;;0.60;;
10126;SDS011;13080;42.608;23.362;2023-04-15T10:58:51;2.70;;;0.70;;
10126;SDS011;13080;42.608;23.362;2023-04-15T11:01:18;2.05;;;0.80;;
10126;SDS011;13080;42.608;23.362;2023-04-15T11:03:47;3.17;;;1.25;;
10126;SDS011;13080;42.608;23.362;2023-04-15T11:06:16;1.98;;;0.80;;
10126;SDS011;13080;42.608;23.362;2023-04-15T11:08:52;1.75;;;0.82;;
10126;SDS011;13080;42.608;23.362;2023-04-15T11:11:21;2.75;;;0.90;;
10126;SDS011;13080;42.608;23.362;2023-04-15T11:13:48;1.50;;;0.70;;
10126;SDS011;13080;42.608;23.362;2023-04-15T11:16:16;1.48;;;0.40;;
10126;SDS011;13080;42.608;23.362;2023-04-15T11:18:52;1.17;;;0.40;;
10126;SDS011;13080;42.608;23.362;2023-04-15T11:21:21;1.75;;;0.50;;
10126;SDS011;13080;42.608;23.362;2023-04-15T11:23:50;2.17;;;0.30;;
10126;SDS011;13080;42.608;23.362;2023-04-15T11:26:17;1.38;;;0.38;;
10126;SDS011;13080;42.608;23.362;2023-04-15T11:28:44;0.75;;;0.40;;
10126;SDS011;13080;42.608;23.362;2023-04-15T11:31:12;0.80;;;0.45;;
10126;SDS011;13080;42.608;23.362;2023-04-15T11:33:46;0.70;;;0.32;;
10126;SDS011;13080;42.608;23.362;2023-04-15T11:36:21;1.27;;;0.40;;
10126;SDS011;13080;42.608;23.362;2023-04-15T11:38:51;1.80;;;0.40;;
10126;SDS011;13080;42.608;23.362;2023-04-15T11:41:19;1.70;;;0.45;;
10126;SDS011;13080;42.608;23.362;2023-04-15T11:43:47;2.35;;;0.52;;
10126;SDS011;13080;42.608;23.362;2023-04-15T11:46:14;2.25;;;0.40;;
10126;SDS011;13080;42.608;23.362;2023-04-15T11:48:41;2.25;;;0.65;;
10126;SDS011;13080;42.608;23.362;2023-04-15T11:51:09;2.50;;;0.77;;
10126;SDS011;13080;42.608;23.362;2023-04-15T11:53:40;1.77;;;0.70;;
10126;SDS011;13080;42.608;23.362;2023-04-15T11:56:08;1.70;;;0.82;;
10126;SDS011;13080;42.608;23.362;2023-04-15T11:58:36;1.52;;;0.40;;
10126;SDS011;13080;42.608;23.362;2023-04-15T12:01:03;2.03;;;0.57;;
10126;SDS011;13080;42.608;23.362;2023-04-15T12:03:35;1.95;;;0.40;;
10126;SDS011;13080;42.608;23.362;2023-04-15T12:11:38;1.80;;;0.50;;
10126;SDS011;13080;42.608;23.362;2023-04-15T12:16:35;0.70;;;0.50;;
10126;SDS011;13080;42.608;23.362;2023-04-15T12:19:05;1.00;;;0.47;;
10126;SDS011;13080;42.608;23.362;2023-04-15T12:21:35;1.38;;;0.40;;
10126;SDS011;13080;42.608;23.362;2023-04-15T12:24:04;2.95;;;0.47;;
10126;SDS011;13080;42.608;23.362;2023-04-15T12:26:35;1.70;;;0.50;;
10126;SDS011;13080;42.608;23.362;2023-04-15T12:29:04;0.85;;;0.40;;
10126;SDS011;13080;42.608;23.362;2023-04-15T12:31:32;0.55;;;0.28;;
10126;SDS011;13080;42.608;23.362;2023-04-15T12:33:59;1.52;;;0.60;;
10126;SDS011;13080;42.608;23.362;2023-04-15T12:36:27;0.55;;;0.30;;
10126;SDS011;13080;42.608;23.362;2023-04-15T12:38:55;0.52;;;0.20;;
10126;SDS011;13080;42.608;23.362;2023-04-15T12:41:22;1.23;;;0.38;;
10126;SDS011;13080;42.608;23.362;2023-04-15T12:43:50;1.35;;;0.57;;
10126;SDS011;13080;42.608;23.362;2023-04-15T12:46:17;0.93;;;0.30;;
10126;SDS011;13080;42.608;23.362;2023-04-15T12:48:44;3.13;;;0.50;;
10126;SDS011;13080;42.608;23.362;2023-04-15T12:51:11;0.98;;;0.32;;
10126;SDS011;13080;42.608;23.362;2023-04-15T12:53:38;2.70;;;0.45;;
10126;SDS011;13080;42.608;23.362;2023-04-15T12:56:05;1.75;;;0.38;;
10126;SDS011;13080;42.608;23.362;2023-04-15T12:58:32;0.93;;;0.43;;
10126;SDS011;13080;42.608;23.362;2023-04-15T13:01:00;2.17;;;0.50;;
10126;SDS011;13080;42.608;23.362;2023-04-15T13:03:27;0.70;;;0.40;;
10126;SDS011;13080;42.608;23.362;2023-04-15T13:05:54;1.98;;;0.40;;
10126;SDS011;13080;42.608;23.362;2023-04-15T13:08:21;0.70;;;0.40;;
10126;SDS011;13080;42.608;23.362;2023-04-15T13:10:49;1.00;;;0.47;;
10126;SDS011;13080;42.608;23.362;2023-04-15T13:13:15;1.52;;;0.50;;
10126;SDS011;13080;42.608;23.362;2023-04-15T13:15:42;1.67;;;0.52;;
10126;SDS011;13080;42.608;23.362;2023-04-15T13:18:11;0.55;;;0.28;;
10126;SDS011;13080;42.608;23.362;2023-04-15T13:20:38;1.13;;;0.50;;
10126;SDS011;13080;42.608;23.362;2023-04-15T13:23:05;2.33;;;0.50;;
10126;SDS011;13080;42.608;23.362;2023-04-15T13:25:32;2.75;;;0.90;;
10126;SDS011;13080;42.608;23.362;2023-04-15T13:27:59;1.65;;;0.47;;
10126;SDS011;13080;42.608;23.362;2023-04-15T13:30:26;0.60;;;0.40;;
10126;SDS011;13080;42.608;23.362;2023-04-15T13:32:53;2.78;;;0.50;;
10126;SDS011;13080;42.608;23.362;2023-04-15T13:35:21;1.35;;;0.30;;
10126;SDS011;13080;42.608;23.362;2023-04-15T13:37:48;1.33;;;0.38;;
10126;SDS011;13080;42.608;23.362;2023-04-15T13:40:14;1.77;;;0.60;;
10126;SDS011;13080;42.608;23.362;2023-04-15T13:42:41;1.50;;;1.00;;
10126;SDS011;13080;42.608;23.362;2023-04-15T13:45:08;1.08;;;0.60;;
10126;SDS011;13080;42.608;23.362;2023-04-15T13:47:36;0.47;;;0.30;;
10126;SDS011;13080;42.608;23.362;2023-04-15T13:50:03;1.80;;;0.35;;
10126;SDS011;13080;42.608;23.362;2023-04-15T13:52:31;1.02;;;0.35;;
10126;SDS011;13080;42.608;23.362;2023-04-15T13:54:58;1.63;;;0.40;;
10126;SDS011;13080;42.608;23.362;2023-04-15T13:57:25;0.70;;;0.32;;
10126;SDS011;13080;42.608;23.362;2023-04-15T13:59:52;1.75;;;0.30;;
10126;SDS011;13080;42.608;23.362;2023-04-15T14:02:19;0.28;;;0.20;;
10126;SDS011;13080;42.608;23.362;2023-04-15T14:04:46;0.80;;;0.40;;
10126;SDS011;13080;42.608;23.362;2023-04-15T14:07:13;0.80;;;0.40;;
10126;SDS011;13080;42.608;23.362;2023-04-15T14:09:41;0.93;;;0.30;;
10126;SDS011;13080;42.608;23.362;2023-04-15T14:12:08;1.67;;;0.50;;
10126;SDS011;13080;42.608;23.362;2023-04-15T14:14:35;3.78;;;0.68;;
10126;SDS011;13080;42.608;23.362;2023-04-15T14:17:02;2.55;;;0.50;;
10126;SDS011;13080;42.608;23.362;2023-04-15T14:19:29;1.77;;;0.40;;
10126;SDS011;13080;42.608;23.362;2023-04-15T14:21:56;3.20;;;0.68;;
10126;SDS011;13080;42.608;23.362;2023-04-15T14:24:23;2.00;;;0.50;;
10126;SDS011;13080;42.608;23.362;2023-04-15T14:26:51;2.97;;;0.50;;
10126;SDS011;13080;42.608;23.362;2023-04-15T14:29:18;1.75;;;0.38;;
10126;SDS011;13080;42.608;23.362;2023-04-15T14:31:45;1.17;;;0.60;;
10126;SDS011;13080;42.608;23.362;2023-04-15T14:34:12;1.85;;;0.80;;
10126;SDS011;13080;42.608;23.362;2023-04-15T14:36:39;3.42;;;1.70;;
10126;SDS011;13080;42.608;23.362;2023-04-15T14:39:06;4.80;;;1.45;;
10126;SDS011;13080;42.608;23.362;2023-04-15T14:41:34;3.55;;;1.48;;
10126;SDS011;13080;42.608;23.362;2023-04-15T14:44:02;5.20;;;2.88;;
10126;SDS011;13080;42.608;23.362;2023-04-15T14:46:28;5.22;;;2.85;;
10126;SDS011;13080;42.608;23.362;2023-04-15T14:48:55;2.75;;;1.40;;